sensor_id;sensor_type;location;lat;lon;timestamp;pressure;altitude;pressure_sealevel;temperature;humidity
17383;BME280;8809;51.892;8.384;2023-07-13T00:02:05;100425.84;;;19.07;85.86
17383;BME280;8809;51.892;8.384;2023-07-13T00:04:34;100429.38;;;19.03;85.81
17383;BME280;8809;51.892;8.384;2023-07-13T00:07:02;100427.56;;;18.99;86.62
17383;BME280;8809;51.892;8.384;2023-07-13T00:09:29;100429.31;;;18.95;86.26
17383;BME280;8809;51.892;8.384;2023-07-13T00:11:57;100431.94;;;18.92;86.44
17383;BME280;8809;51.892;8.384;2023-07-13T00:14:25;100443.34;;;18.86;87.12
17383;BME280;8809;51.892;8.384;2023-07-13T00:16:52;100448.63;;;18.85;87.06
17383;BME280;8809;51.892;8.384;2023-07-13T00:19:19;100441.59;;;18.82;86.64
17383;BME280;8809;51.892;8.384;2023-07-13T00:21:48;100442.44;;;18.78;87.23
17383;BME280;8809;51.892;8.384;2023-07-13T00:24:16;100439.78;;;18.72;88.07
17383;BME280;8809;51.892;8.384;2023-07-13T00:26:49;100433.56;;;18.67;87.38
17383;BME280;8809;51.892;8.384;2023-07-13T00:29:16;100438.81;;;18.66;87.86
17383;BME280;8809;51.892;8.384;2023-07-13T00:31:43;100448.53;;;18.64;88.04
17383;BME280;8809;51.892;8.384;2023-07-13T00:34:10;100444.09;;;18.61;87.95
17383;BME280;8809;51.892;8.384;2023-07-13T00:36:37;100435.28;;;18.59;87.87
17383;BME280;8809;51.892;8.384;2023-07-13T00:39:05;100442.31;;;18.59;87.63
17383;BME280;8809;51.892;8.384;2023-07-13T00:41:32;100444.94;;;18.57;87.91
17383;BME280;8809;51.892;8.384;2023-07-13T00:43:59;100447.53;;;18.55;87.48
17383;BME280;8809;51.892;8.384;2023-07-13T00:46:30;100435.22;;;18.54;87.83
17383;BME280;8809;51.892;8.384;2023-07-13T00:49:00;100436.97;;;18.54;87.34
17383;BME280;8809;51.892;8.384;2023-07-13T00:51:32;100441.38;;;18.52;88.15
17383;BME280;8809;51.892;8.384;2023-07-13T00:54:05;100435.19;;;18.51;88.12
17383;BME280;8809;51.892;8.384;2023-07-13T00:56:34;100443.97;;;18.49;88.26
17383;BME280;8809;51.892;8.384;2023-07-13T00:59:03;100446.59;;;18.46;88.37
17383;BME280;8809;51.892;8.384;2023-07-13T01:01:31;100439.56;;;18.45;88.26
17383;BME280;8809;51.892;8.384;2023-07-13T01:03:58;100437.78;;;18.45;88.86
17383;BME280;8809;51.892;8.384;2023-07-13T01:06:25;100442.16;;;18.42;88.84
17383;BME280;8809;51.892;8.384;2023-07-13T01:08:52;100443.06;;;18.42;88.95
17383;BME280;8809;51.892;8.384;2023-07-13T01:11:21;100437.72;;;18.38;90.41
17383;BME280;8809;51.892;8.384;2023-07-13T01:13:49;100438.59;;;18.34;91.44
17383;BME280;8809;51.892;8.384;2023-07-13T01:16:23;100439.44;;;18.31;91.22
17383;BME280;8809;51.892;8.384;2023-07-13T01:18:51;100439.41;;;18.27;92.34
17383;BME280;8809;51.892;8.384;2023-07-13T01:21:19;100439.41;;;18.25;92.54
17383;BME280;8809;51.892;8.384;2023-07-13T01:23:46;100434.97;;;18.23;92.78
17383;BME280;8809;51.892;8.384;2023-07-13T01:26:13;100441.16;;;18.23;93.19
17383;BME280;8809;51.892;8.384;2023-07-13T01:28:42;100435.00;;;18.24;92.38
17383;BME280;8809;51.892;8.384;2023-07-13T01:31:09;100433.22;;;18.26;92.84
17383;BME280;8809;51.892;8.384;2023-07-13T01:33:37;100433.25;;;18.28;93.09
17383;BME280;8809;51.892;8.384;2023-07-13T01:36:05;100434.16;;;18.30;93.28
17383;BME280;8809;51.892;8.384;2023-07-13T01:38:36;100438.56;;;18.31;93.19
17383;BME280;8809;51.892;8.384;2023-07-13T01:41:03;100438.56;;;18.31;93.88
17383;BME280;8809;51.892;8.384;2023-07-13T01:43:31;100437.69;;;18.32;94.00
17383;BME280;8809;51.892;8.384;2023-07-13T01:45:58;100441.25;;;18.34;93.55
17383;BME280;8809;51.892;8.384;2023-07-13T01:48:25;100441.25;;;18.34;93.80
17383;BME280;8809;51.892;8.384;2023-07-13T01:50:52;100443.88;;;18.34;93.24
17383;BME280;8809;51.892;8.384;2023-07-13T01:53:19;100444.72;;;18.31;94.27
17383;BME280;8809;51.892;8.384;2023-07-13T01:55:47;100436.78;;;18.30;95.21
17383;BME280;8809;51.892;8.384;2023-07-13T01:58:15;100434.13;;;18.27;95.34
17383;BME280;8809;51.892;8.384;2023-07-13T02:00:42;100440.31;;;18.26;94.79
17383;BME280;8809;51.892;8.384;2023-07-13T02:03:09;100429.75;;;18.26;93.93
17383;BME280;8809;51.892;8.384;2023-07-13T02:05:36;100434.13;;;18.24;94.24
17383;BME280;8809;51.892;8.384;2023-07-13T02:08:03;100439.41;;;18.24;94.39
17383;BME280;8809;51.892;8.384;2023-07-13T02:10:30;100435.88;;;18.23;93.39
17383;BME280;8809;51.892;8.384;2023-07-13T02:13:01;100442.03;;;18.24;93.53
17383;BME280;8809;51.892;8.384;2023-07-13T02:15:28;100441.16;;;18.23;93.12
17383;BME280;8809;51.892;8.384;2023-07-13T02:17:55;100443.78;;;18.22;93.80
17383;BME280;8809;51.892;8.384;2023-07-13T02:20:23;100442.88;;;18.21;92.39
17383;BME280;8809;51.892;8.384;2023-07-13T02:22:52;100444.66;;;18.21;92.34
17383;BME280;8809;51.892;8.384;2023-07-13T02:25:18;100441.97;;;18.19;92.20
17383;BME280;8809;51.892;8.384;2023-07-13T02:27:45;100448.16;;;18.16;93.00
17383;BME280;8809;51.892;8.384;2023-07-13T02:30:14;100440.16;;;18.10;93.69
17383;BME280;8809;51.892;8.384;2023-07-13T02:32:41;100440.13;;;18.07;93.74
17383;BME280;8809;51.892;8.384;2023-07-13T02:35:09;100440.06;;;18.01;94.18
17383;BME280;8809;51.892;8.384;2023-07-13T02:37:36;100444.44;;;17.95;94.83
17383;BME280;8809;51.892;8.384;2023-07-13T02:40:04;100448.78;;;17.91;94.87
17383;BME280;8809;51.892;8.384;2023-07-13T02:42:33;100443.47;;;17.88;94.78
17383;BME280;8809;51.892;8.384;2023-07-13T02:45:00;100441.69;;;17.84;95.34
17383;BME280;8809;51.892;8.384;2023-07-13T02:47:28;100439.00;;;17.78;97.06
17383;BME280;8809;51.892;8.384;2023-07-13T02:49:55;100440.72;;;17.74;97.44
17383;BME280;8809;51.892;8.384;2023-07-13T02:52:22;100442.41;;;17.69;98.61
17383;BME280;8809;51.892;8.384;2023-07-13T02:54:50;100444.16;;;17.67;98.16
17383;BME280;8809;51.892;8.384;2023-07-13T02:57:17;100450.28;;;17.65;97.60
17383;BME280;8809;51.892;8.384;2023-07-13T02:59:44;100445.78;;;17.61;99.90
17383;BME280;8809;51.892;8.384;2023-07-13T03:02:10;100448.44;;;17.58;100.00
17383;BME280;8809;51.892;8.384;2023-07-13T03:04:39;100451.94;;;17.57;98.79
17383;BME280;8809;51.892;8.384;2023-07-13T03:07:06;100456.25;;;17.52;100.00
17383;BME280;8809;51.892;8.384;2023-07-13T03:09:34;100451.75;;;17.43;100.00
17383;BME280;8809;51.892;8.384;2023-07-13T03:12:05;100464.03;;;17.41;100.00
17383;BME280;8809;51.892;8.384;2023-07-13T03:14:32;100458.75;;;17.38;100.00
17383;BME280;8809;51.892;8.384;2023-07-13T03:17:02;100459.53;;;17.31;100.00
17383;BME280;8809;51.892;8.384;2023-07-13T03:19:29;100459.47;;;17.26;100.00
17383;BME280;8809;51.892;8.384;2023-07-13T03:21:58;100457.72;;;17.25;100.00
17383;BME280;8809;51.892;8.384;2023-07-13T03:24:25;100451.50;;;17.22;100.00
17383;BME280;8809;51.892;8.384;2023-07-13T03:26:52;100448.88;;;17.22;100.00
17383;BME280;8809;51.892;8.384;2023-07-13T03:29:19;100463.78;;;17.21;100.00
17383;BME280;8809;51.892;8.384;2023-07-13T03:31:46;100458.53;;;17.21;100.00
17383;BME280;8809;51.892;8.384;2023-07-13T03:34:13;100465.56;;;17.19;100.00
17383;BME280;8809;51.892;8.384;2023-07-13T03:36:40;100466.41;;;17.17;100.00
17383;BME280;8809;51.892;8.384;2023-07-13T03:39:09;100469.00;;;17.15;100.00
17383;BME280;8809;51.892;8.384;2023-07-13T03:41:36;100474.22;;;17.11;100.00
17383;BME280;8809;51.892;8.384;2023-07-13T03:44:03;100476.81;;;17.08;100.00
17383;BME280;8809;51.892;8.384;2023-07-13T03:46:30;100482.97;;;17.08;100.00
17383;BME280;8809;51.892;8.384;2023-07-13T03:48:59;100482.88;;;17.00;100.00
17383;BME280;8809;51.892;8.384;2023-07-13T03:51:26;100482.84;;;16.99;100.00
17383;BME280;8809;51.892;8.384;2023-07-13T03:53:52;100486.28;;;16.95;100.00
17383;BME280;8809;51.892;8.384;2023-07-13T03:56:21;100480.13;;;16.91;100.00
17383;BME280;8809;51.892;8.384;2023-07-13T03:58:49;100480.06;;;16.88;100.00
17383;BME280;8809;51.892;8.384;2023-07-13T04:01:18;100487.88;;;16.84;100.00
17383;BME280;8809;51.892;8.384;2023-07-13T04:03:46;100487.88;;;16.81;100.00
17383;BME280;8809;51.892;8.384;2023-07-13T04:06:16;100497.50;;;16.79;100.00
17383;BME280;8809;51.892;8.384;2023-07-13T04:08:47;100489.53;;;16.76;99.94
17383;BME280;8809;51.892;8.384;2023-07-13T04:11:15;100502.72;;;16.77;99.77
17383;BME280;8809;51.892;8.384;2023-07-13T04:13:44;100492.19;;;16.77;100.00
17383;BME280;8809;51.892;8.384;2023-07-13T04:16:15;100503.63;;;16.78;99.39
17383;BME280;8809;51.892;8.384;2023-07-13T04:18:43;100502.69;;;16.74;99.52
17383;BME280;8809;51.892;8.384;2023-07-13T04:21:10;100503.50;;;16.68;100.00
17383;BME280;8809;51.892;8.384;2023-07-13T04:23:37;100505.25;;;16.69;99.78
17383;BME280;8809;51.892;8.384;2023-07-13T04:26:05;100503.50;;;16.70;99.30
17383;BME280;8809;51.892;8.384;2023-07-13T04:28:33;100507.88;;;16.68;99.82
17383;BME280;8809;51.892;8.384;2023-07-13T04:31:02;100510.41;;;16.63;99.50
17383;BME280;8809;51.892;8.384;2023-07-13T04:33:28;100517.44;;;16.61;100.00
17383;BME280;8809;51.892;8.384;2023-07-13T04:35:56;100511.22;;;16.59;99.94
17383;BME280;8809;51.892;8.384;2023-07-13T04:38:26;100525.25;;;16.58;99.67
17383;BME280;8809;51.892;8.384;2023-07-13T04:40:55;100528.66;;;16.54;100.00
17383;BME280;8809;51.892;8.384;2023-07-13T04:43:22;100527.78;;;16.52;100.00
17383;BME280;8809;51.892;8.384;2023-07-13T04:45:50;100516.38;;;16.52;100.00
17383;BME280;8809;51.892;8.384;2023-07-13T04:48:19;100526.88;;;16.50;100.00
17383;BME280;8809;51.892;8.384;2023-07-13T04:50:54;100510.16;;;16.48;100.00
17383;BME280;8809;51.892;8.384;2023-07-13T04:53:21;100506.59;;;16.46;100.00
17383;BME280;8809;51.892;8.384;2023-07-13T04:55:48;100515.34;;;16.45;100.00
17383;BME280;8809;51.892;8.384;2023-07-13T04:58:15;100514.47;;;16.43;100.00
17383;BME280;8809;51.892;8.384;2023-07-13T05:00:42;100518.84;;;16.44;100.00
17383;BME280;8809;51.892;8.384;2023-07-13T05:03:09;100518.84;;;16.44;100.00
17383;BME280;8809;51.892;8.384;2023-07-13T05:05:38;100530.28;;;16.45;100.00
17383;BME280;8809;51.892;8.384;2023-07-13T05:08:05;100527.59;;;16.42;100.00
17383;BME280;8809;51.892;8.384;2023-07-13T05:10:33;100517.09;;;16.43;100.00
17383;BME280;8809;51.892;8.384;2023-07-13T05:13:00;100522.34;;;16.42;100.00
17383;BME280;8809;51.892;8.384;2023-07-13T05:15:26;100516.16;;;16.40;100.00
17383;BME280;8809;51.892;8.384;2023-07-13T05:17:53;100514.41;;;16.40;100.00
17383;BME280;8809;51.892;8.384;2023-07-13T05:20:20;100531.09;;;16.41;100.00
17383;BME280;8809;51.892;8.384;2023-07-13T05:22:49;100527.63;;;16.43;100.00
17383;BME280;8809;51.892;8.384;2023-07-13T05:25:16;100533.75;;;16.44;100.00
17383;BME280;8809;51.892;8.384;2023-07-13T05:27:43;100527.66;;;16.46;100.00
17383;BME280;8809;51.892;8.384;2023-07-13T05:30:11;100535.63;;;16.49;100.00
17383;BME280;8809;51.892;8.384;2023-07-13T05:32:38;100540.06;;;16.53;100.00
17383;BME280;8809;51.892;8.384;2023-07-13T05:35:06;100534.88;;;16.58;100.00
17383;BME280;8809;51.892;8.384;2023-07-13T05:37:34;100545.53;;;16.62;100.00
17383;BME280;8809;51.892;8.384;2023-07-13T05:40:02;100542.09;;;16.66;100.00
17383;BME280;8809;51.892;8.384;2023-07-13T05:42:29;100546.59;;;16.75;100.00
17383;BME280;8809;51.892;8.384;2023-07-13T05:44:57;100547.53;;;16.77;99.65
17383;BME280;8809;51.892;8.384;2023-07-13T05:47:24;100549.31;;;16.80;98.83
17383;BME280;8809;51.892;8.384;2023-07-13T05:49:51;100553.78;;;16.85;99.06
17383;BME280;8809;51.892;8.384;2023-07-13T05:52:20;100552.06;;;16.87;98.92
17383;BME280;8809;51.892;8.384;2023-07-13T05:54:47;100553.00;;;16.92;98.91
17383;BME280;8809;51.892;8.384;2023-07-13T05:57:15;100553.03;;;16.94;98.37
17383;BME280;8809;51.892;8.384;2023-07-13T05:59:42;100554.84;;;16.96;98.60
17383;BME280;8809;51.892;8.384;2023-07-13T06:02:09;100561.91;;;16.99;99.57
17383;BME280;8809;51.892;8.384;2023-07-13T06:04:37;100562.84;;;17.04;99.59
17383;BME280;8809;51.892;8.384;2023-07-13T06:07:05;100569.94;;;17.06;98.91
17383;BME280;8809;51.892;8.384;2023-07-13T06:09:32;100569.13;;;17.11;99.33
17383;BME280;8809;51.892;8.384;2023-07-13T06:11:59;100568.25;;;17.13;99.02
17383;BME280;8809;51.892;8.384;2023-07-13T06:14:27;100576.22;;;17.16;99.43
17383;BME280;8809;51.892;8.384;2023-07-13T06:16:54;100578.06;;;17.20;99.13
17383;BME280;8809;51.892;8.384;2023-07-13T06:19:22;100571.97;;;17.26;98.53
17383;BME280;8809;51.892;8.384;2023-07-13T06:21:49;100568.53;;;17.31;98.95
17383;BME280;8809;51.892;8.384;2023-07-13T06:24:16;100572.97;;;17.35;99.09
17383;BME280;8809;51.892;8.384;2023-07-13T06:26:43;100569.50;;;17.38;99.38
17383;BME280;8809;51.892;8.384;2023-07-13T06:29:10;100569.53;;;17.39;98.97
17383;BME280;8809;51.892;8.384;2023-07-13T06:31:39;100566.91;;;17.42;98.93
17383;BME280;8809;51.892;8.384;2023-07-13T06:34:06;100574.03;;;17.48;99.83
17383;BME280;8809;51.892;8.384;2023-07-13T06:36:33;100567.94;;;17.54;99.53
17383;BME280;8809;51.892;8.384;2023-07-13T06:39:01;100571.50;;;17.56;99.59
17383;BME280;8809;51.892;8.384;2023-07-13T06:41:28;100568.88;;;17.57;100.00
17383;BME280;8809;51.892;8.384;2023-07-13T06:43:56;100572.44;;;17.61;100.00
17383;BME280;8809;51.892;8.384;2023-07-13T06:46:23;100571.66;;;17.65;99.91
17383;BME280;8809;51.892;8.384;2023-07-13T06:48:51;100570.84;;;17.72;100.00
17383;BME280;8809;51.892;8.384;2023-07-13T06:51:18;100573.50;;;17.73;100.00
17383;BME280;8809;51.892;8.384;2023-07-13T06:53:46;100562.13;;;17.79;100.00
17383;BME280;8809;51.892;8.384;2023-07-13T06:56:13;100568.38;;;17.86;100.00
17383;BME280;8809;51.892;8.384;2023-07-13T06:58:40;100568.41;;;17.90;100.00
17383;BME280;8809;51.892;8.384;2023-07-13T07:01:08;100575.53;;;17.94;100.00
17383;BME280;8809;51.892;8.384;2023-07-13T07:03:38;100580.84;;;18.00;100.00
17383;BME280;8809;51.892;8.384;2023-07-13T07:06:12;100584.41;;;18.02;100.00
17383;BME280;8809;51.892;8.384;2023-07-13T07:08:40;100578.25;;;18.03;99.52
17383;BME280;8809;51.892;8.384;2023-07-13T07:11:09;100582.72;;;18.10;100.00
17383;BME280;8809;51.892;8.384;2023-07-13T07:13:36;100587.16;;;18.13;99.65
17383;BME280;8809;51.892;8.384;2023-07-13T07:16:04;100589.91;;;18.24;99.14
17383;BME280;8809;51.892;8.384;2023-07-13T07:18:31;100589.09;;;18.29;98.54
17383;BME280;8809;51.892;8.384;2023-07-13T07:20:58;100586.47;;;18.32;98.40
17383;BME280;8809;51.892;8.384;2023-07-13T07:23:27;100588.28;;;18.38;98.43
17383;BME280;8809;51.892;8.384;2023-07-13T07:25:54;100591.00;;;18.44;98.23
17383;BME280;8809;51.892;8.384;2023-07-13T07:28:21;100585.81;;;18.53;97.89
17383;BME280;8809;51.892;8.384;2023-07-13T07:30:52;100593.75;;;18.56;97.59
17383;BME280;8809;51.892;8.384;2023-07-13T07:33:20;100590.25;;;18.57;95.72
17383;BME280;8809;51.892;8.384;2023-07-13T07:35:47;100594.72;;;18.61;95.72
17383;BME280;8809;51.892;8.384;2023-07-13T07:38:14;100604.47;;;18.68;97.20
17383;BME280;8809;51.892;8.384;2023-07-13T07:40:46;100601.91;;;18.79;94.78
17383;BME280;8809;51.892;8.384;2023-07-13T07:43:13;100603.66;;;18.77;94.71
17383;BME280;8809;51.892;8.384;2023-07-13T07:45:40;100601.03;;;18.80;95.12
17383;BME280;8809;51.892;8.384;2023-07-13T07:48:10;100596.69;;;18.83;95.68
17383;BME280;8809;51.892;8.384;2023-07-13T07:50:37;100592.28;;;18.88;94.76
17383;BME280;8809;51.892;8.384;2023-07-13T07:53:08;100594.09;;;18.94;94.58
17383;BME280;8809;51.892;8.384;2023-07-13T07:55:36;100597.69;;;19.04;93.66
17383;BME280;8809;51.892;8.384;2023-07-13T07:58:04;100600.38;;;19.08;94.17
17383;BME280;8809;51.892;8.384;2023-07-13T08:00:32;100590.72;;;19.16;93.68
17383;BME280;8809;51.892;8.384;2023-07-13T08:02:59;100598.78;;;19.30;93.04
17383;BME280;8809;51.892;8.384;2023-07-13T08:05:26;100604.09;;;19.36;92.63
17383;BME280;8809;51.892;8.384;2023-07-13T08:07:53;100609.41;;;19.39;92.51
17383;BME280;8809;51.892;8.384;2023-07-13T08:10:22;100603.25;;;19.40;91.92
17383;BME280;8809;51.892;8.384;2023-07-13T08:12:49;100605.88;;;19.42;92.16
17383;BME280;8809;51.892;8.384;2023-07-13T08:15:18;100605.00;;;19.41;89.90
17383;BME280;8809;51.892;8.384;2023-07-13T08:17:47;100601.47;;;19.42;91.06
17383;BME280;8809;51.892;8.384;2023-07-13T08:20:19;100611.25;;;19.49;91.10
17383;BME280;8809;51.892;8.384;2023-07-13T08:22:46;100603.31;;;19.52;90.80
17383;BME280;8809;51.892;8.384;2023-07-13T08:25:13;100600.72;;;19.63;90.34
17383;BME280;8809;51.892;8.384;2023-07-13T08:27:43;100611.34;;;19.71;89.89
17383;BME280;8809;51.892;8.384;2023-07-13T08:30:13;100599.06;;;19.79;88.85
17383;BME280;8809;51.892;8.384;2023-07-13T08:32:41;100607.00;;;19.85;88.21
17383;BME280;8809;51.892;8.384;2023-07-13T08:35:08;100607.03;;;19.94;89.36
17383;BME280;8809;51.892;8.384;2023-07-13T08:37:35;100607.06;;;20.00;88.10
17383;BME280;8809;51.892;8.384;2023-07-13T08:40:03;100612.34;;;20.00;87.89
17383;BME280;8809;51.892;8.384;2023-07-13T08:42:34;100612.34;;;19.97;86.17
17383;BME280;8809;51.892;8.384;2023-07-13T08:45:17;100610.59;;;19.96;86.95
17383;BME280;8809;51.892;8.384;2023-07-13T08:47:54;100607.94;;;20.02;86.32
17383;BME280;8809;51.892;8.384;2023-07-13T08:50:28;100615.94;;;20.13;84.56
17383;BME280;8809;51.892;8.384;2023-07-13T08:52:58;100615.94;;;20.19;84.41
17383;BME280;8809;51.892;8.384;2023-07-13T08:55:30;100606.25;;;20.24;86.44
17383;BME280;8809;51.892;8.384;2023-07-13T08:58:03;100612.44;;;20.30;83.54
17383;BME280;8809;51.892;8.384;2023-07-13T09:00:38;100621.34;;;20.45;82.06
17383;BME280;8809;51.892;8.384;2023-07-13T09:03:18;100609.00;;;20.62;81.93
17383;BME280;8809;51.892;8.384;2023-07-13T09:05:50;100622.25;;;20.68;80.54
17383;BME280;8809;51.892;8.384;2023-07-13T09:08:38;100610.75;;;20.80;80.34
17383;BME280;8809;51.892;8.384;2023-07-13T09:11:18;100624.00;;;20.77;79.79
17383;BME280;8809;51.892;8.384;2023-07-13T09:13:54;100614.31;;;20.74;78.78
17383;BME280;8809;51.892;8.384;2023-07-13T09:16:25;100621.38;;;20.75;78.30
17383;BME280;8809;51.892;8.384;2023-07-13T09:18:58;100612.53;;;20.97;77.73
17383;BME280;8809;51.892;8.384;2023-07-13T09:21:30;100616.94;;;21.07;78.64
17383;BME280;8809;51.892;8.384;2023-07-13T09:24:01;100616.06;;;21.11;76.59
17383;BME280;8809;51.892;8.384;2023-07-13T09:26:32;100626.66;;;21.15;76.93
17383;BME280;8809;51.892;8.384;2023-07-13T09:29:10;100611.63;;;21.35;75.32
17383;BME280;8809;51.892;8.384;2023-07-13T09:31:43;100617.81;;;21.40;73.79
17383;BME280;8809;51.892;8.384;2023-07-13T09:34:13;100608.03;;;21.56;72.36
17383;BME280;8809;51.892;8.384;2023-07-13T09:36:41;100608.88;;;21.70;73.04
17383;BME280;8809;51.892;8.384;2023-07-13T09:39:13;100616.75;;;21.93;70.56
17383;BME280;8809;51.892;8.384;2023-07-13T09:41:47;100609.69;;;21.85;69.83
17383;BME280;8809;51.892;8.384;2023-07-13T09:44:18;100612.34;;;21.85;70.98
17383;BME280;8809;51.892;8.384;2023-07-13T09:46:57;100617.69;;;21.81;71.61
17383;BME280;8809;51.892;8.384;2023-07-13T09:49:26;100622.97;;;21.98;71.50
17383;BME280;8809;51.892;8.384;2023-07-13T09:51:58;100614.13;;;21.99;70.68
17383;BME280;8809;51.892;8.384;2023-07-13T09:54:27;100616.72;;;22.08;71.35
17383;BME280;8809;51.892;8.384;2023-07-13T09:56:55;100623.66;;;22.33;71.46
17383;BME280;8809;51.892;8.384;2023-07-13T09:59:26;100620.16;;;22.30;71.00
17383;BME280;8809;51.892;8.384;2023-07-13T10:01:54;100620.09;;;22.39;70.07
17383;BME280;8809;51.892;8.384;2023-07-13T10:04:32;100616.56;;;22.31;71.46
17383;BME280;8809;51.892;8.384;2023-07-13T10:07:07;100619.34;;;22.17;70.76
17383;BME280;8809;51.892;8.384;2023-07-13T10:09:34;100619.22;;;22.35;70.79
17383;BME280;8809;51.892;8.384;2023-07-13T10:12:03;100620.84;;;22.57;69.54
17383;BME280;8809;51.892;8.384;2023-07-13T10:14:30;100627.81;;;22.74;68.10
17383;BME280;8809;51.892;8.384;2023-07-13T10:16:59;100627.69;;;22.95;69.70
17383;BME280;8809;51.892;8.384;2023-07-13T10:19:30;100632.03;;;23.04;66.81
17383;BME280;8809;51.892;8.384;2023-07-13T10:22:01;100629.53;;;22.85;66.75
17383;BME280;8809;51.892;8.384;2023-07-13T10:24:31;100636.75;;;22.67;67.07
17383;BME280;8809;51.892;8.384;2023-07-13T10:27:02;100631.56;;;22.45;66.18
17383;BME280;8809;51.892;8.384;2023-07-13T10:29:36;100644.88;;;22.41;67.44
17383;BME280;8809;51.892;8.384;2023-07-13T10:32:09;100642.28;;;22.33;67.66
17383;BME280;8809;51.892;8.384;2023-07-13T10:34:38;100637.03;;;22.18;67.30
17383;BME280;8809;51.892;8.384;2023-07-13T10:37:15;100633.59;;;21.98;67.28
17383;BME280;8809;51.892;8.384;2023-07-13T10:39:44;100629.97;;;22.11;67.71
17383;BME280;8809;51.892;8.384;2023-07-13T10:42:25;100632.63;;;22.18;69.25
17383;BME280;8809;51.892;8.384;2023-07-13T10:44:56;100622.84;;;22.22;67.49
17383;BME280;8809;51.892;8.384;2023-07-13T10:47:24;100627.16;;;22.40;68.45
17383;BME280;8809;51.892;8.384;2023-07-13T10:49:56;100625.22;;;22.66;68.25
17383;BME280;8809;51.892;8.384;2023-07-13T10:52:46;100625.22;;;22.65;67.42
17383;BME280;8809;51.892;8.384;2023-07-13T10:55:38;100635.75;;;22.87;67.57
17383;BME280;8809;51.892;8.384;2023-07-13T10:58:14;100636.56;;;22.97;68.32
17383;BME280;8809;51.892;8.384;2023-07-13T11:00:47;100635.69;;;22.92;67.19
17383;BME280;8809;51.892;8.384;2023-07-13T11:03:17;100632.13;;;22.91;66.57
17383;BME280;8809;51.892;8.384;2023-07-13T11:05:49;100639.31;;;22.82;67.03
17383;BME280;8809;51.892;8.384;2023-07-13T11:08:31;100645.59;;;22.75;67.79
17383;BME280;8809;51.892;8.384;2023-07-13T11:11:03;100640.31;;;22.64;65.99
17383;BME280;8809;51.892;8.384;2023-07-13T11:16:50;100633.09;;;22.83;67.82
17383;BME280;8809;51.892;8.384;2023-07-13T11:19:37;100625.09;;;22.87;67.76
17383;BME280;8809;51.892;8.384;2023-07-13T11:22:40;100629.56;;;22.79;67.35
17383;BME280;8809;51.892;8.384;2023-07-13T11:25:29;100631.34;;;22.82;67.44
17383;BME280;8809;51.892;8.384;2023-07-13T11:28:15;100631.16;;;23.03;67.63
17383;BME280;8809;51.892;8.384;2023-07-13T11:30:46;100629.22;;;23.22;65.87
17383;BME280;8809;51.892;8.384;2023-07-13T11:33:18;100638.97;;;23.23;62.99
17383;BME280;8809;51.892;8.384;2023-07-13T11:35:57;100632.88;;;23.10;63.13
17383;BME280;8809;51.892;8.384;2023-07-13T11:38:30;100634.69;;;23.05;66.84
17383;BME280;8809;51.892;8.384;2023-07-13T11:41:03;100631.22;;;22.97;65.38
17383;BME280;8809;51.892;8.384;2023-07-13T11:43:33;100634.81;;;22.91;64.54
17383;BME280;8809;51.892;8.384;2023-07-13T11:46:15;100634.00;;;22.83;65.31
17383;BME280;8809;51.892;8.384;2023-07-13T11:48:44;100628.69;;;22.82;68.59
17383;BME280;8809;51.892;8.384;2023-07-13T11:51:19;100634.81;;;22.90;67.82
17383;BME280;8809;51.892;8.384;2023-07-13T11:53:50;100633.03;;;22.89;65.71
17383;BME280;8809;51.892;8.384;2023-07-13T11:56:19;100636.59;;;22.91;65.79
17383;BME280;8809;51.892;8.384;2023-07-13T11:58:51;100623.09;;;23.14;64.94
17383;BME280;8809;51.892;8.384;2023-07-13T12:01:21;100630.81;;;23.40;63.88
17383;BME280;8809;51.892;8.384;2023-07-13T12:03:49;100633.22;;;23.65;62.54
17383;BME280;8809;51.892;8.384;2023-07-13T12:06:26;100633.88;;;23.84;61.94
17383;BME280;8809;51.892;8.384;2023-07-13T12:08:58;100637.50;;;23.82;58.24
17383;BME280;8809;51.892;8.384;2023-07-13T12:11:41;100635.06;;;23.59;59.55
17383;BME280;8809;51.892;8.384;2023-07-13T12:14:14;100641.38;;;23.46;61.04
17383;BME280;8809;51.892;8.384;2023-07-13T12:16:42;100636.16;;;23.37;60.26
17383;BME280;8809;51.892;8.384;2023-07-13T12:19:17;100636.84;;;23.58;59.23
17383;BME280;8809;51.892;8.384;2023-07-13T12:21:45;100646.47;;;23.72;58.64
17383;BME280;8809;51.892;8.384;2023-07-13T12:24:17;100646.28;;;23.88;57.40
17383;BME280;8809;51.892;8.384;2023-07-13T12:26:51;100635.53;;;23.94;57.97
17383;BME280;8809;51.892;8.384;2023-07-13T12:29:18;100646.06;;;24.05;57.83
17383;BME280;8809;51.892;8.384;2023-07-13T12:31:49;100646.84;;;24.13;57.77
17383;BME280;8809;51.892;8.384;2023-07-13T12:34:20;100644.06;;;24.24;57.20
17383;BME280;8809;51.892;8.384;2023-07-13T12:36:49;100654.69;;;24.27;56.52
17383;BME280;8809;51.892;8.384;2023-07-13T12:39:19;100649.50;;;24.15;57.40
17383;BME280;8809;51.892;8.384;2023-07-13T12:41:49;100639.66;;;24.20;58.76
17383;BME280;8809;51.892;8.384;2023-07-13T12:44:19;100641.34;;;24.30;58.76
17383;BME280;8809;51.892;8.384;2023-07-13T12:46:58;100641.44;;;24.21;58.76
17383;BME280;8809;51.892;8.384;2023-07-13T12:49:30;100638.69;;;24.27;61.20
17383;BME280;8809;51.892;8.384;2023-07-13T12:52:01;100639.69;;;24.17;55.87
17383;BME280;8809;51.892;8.384;2023-07-13T12:54:29;100639.50;;;24.32;55.97
17383;BME280;8809;51.892;8.384;2023-07-13T12:57:00;100634.84;;;24.48;57.93
17383;BME280;8809;51.892;8.384;2023-07-13T12:59:32;100644.34;;;24.67;57.28
17383;BME280;8809;51.892;8.384;2023-07-13T13:02:29;100638.97;;;24.70;53.51
17383;BME280;8809;51.892;8.384;2023-07-13T13:04:56;100644.38;;;24.65;55.94
17383;BME280;8809;51.892;8.384;2023-07-13T13:07:25;100636.25;;;24.71;56.91
17383;BME280;8809;51.892;8.384;2023-07-13T13:09:52;100647.00;;;24.68;54.41
17383;BME280;8809;51.892;8.384;2023-07-13T13:12:22;100634.84;;;24.48;55.18
17383;BME280;8809;51.892;8.384;2023-07-13T13:14:51;100633.72;;;24.64;55.92